createdAt,value
2022-10-31T00:00:28.465Z,1016.90
2022-10-31T00:01:28.417Z,1016.93
2022-10-31T00:02:28.466Z,1016.97
2022-10-31T00:03:28.391Z,1016.90
2022-10-31T00:04:28.386Z,1016.92
2022-10-31T00:05:28.386Z,1016.92
2022-10-31T00:06:28.343Z,1016.88
2022-10-31T00:07:28.330Z,1016.88
2022-10-31T00:08:28.348Z,1016.91
2022-10-31T00:09:29.254Z,1016.90
2022-10-31T00:10:28.304Z,1016.85
2022-10-31T00:11:28.284Z,1016.87
2022-10-31T00:12:28.351Z,1016.91
2022-10-31T00:13:28.258Z,1016.95
2022-10-31T00:14:28.265Z,1017.02
2022-10-31T00:15:28.240Z,1016.98
2022-10-31T00:16:28.228Z,1017.02
2022-10-31T00:17:28.215Z,1016.97
2022-10-31T00:18:28.241Z,1016.90
2022-10-31T00:19:28.200Z,1016.85
2022-10-31T00:20:28.187Z,1016.89
2022-10-31T00:21:28.283Z,1016.94
2022-10-31T00:22:28.182Z,1016.96
2022-10-31T00:23:28.182Z,1016.86
2022-10-31T00:24:28.137Z,1016.83
2022-10-31T00:25:28.136Z,1016.84
2022-10-31T00:26:28.138Z,1016.90
2022-10-31T00:27:28.137Z,1016.91
2022-10-31T00:28:28.091Z,1016.91
2022-10-31T00:29:28.104Z,1016.87
2022-10-31T00:30:28.080Z,1016.94
2022-10-31T00:31:28.091Z,1017.01
2022-10-31T00:32:28.048Z,1017.02
2022-10-31T00:33:28.040Z,1017.01
2022-10-31T00:34:28.022Z,1016.99
2022-10-31T00:35:28.021Z,1016.94
2022-10-31T00:36:28.031Z,1016.92
2022-10-31T00:37:28.011Z,1017.02
2022-10-31T00:38:27.985Z,1017.01
2022-10-31T00:39:27.972Z,1016.95
2022-10-31T00:40:27.952Z,1016.93
2022-10-31T00:41:27.962Z,1016.95
2022-10-31T00:42:27.953Z,1016.94
2022-10-31T00:43:27.940Z,1017.00
2022-10-31T00:44:27.913Z,1016.94
2022-10-31T00:45:27.911Z,1016.90
2022-10-31T00:46:27.912Z,1016.97
2022-10-31T00:47:27.875Z,1017.00
2022-10-31T00:48:27.899Z,1017.00
2022-10-31T00:49:28.831Z,1016.99
2022-10-31T00:50:27.842Z,1016.96
2022-10-31T00:51:27.842Z,1016.93
2022-10-31T00:52:27.815Z,1016.99
2022-10-31T00:53:27.809Z,1016.93
2022-10-31T00:54:27.824Z,1016.89
2022-10-31T00:55:27.825Z,1016.94
2022-10-31T00:56:27.777Z,1016.99
2022-10-31T00:57:27.787Z,1017.05
2022-10-31T00:58:27.746Z,1017.08
2022-10-31T00:59:27.752Z,1017.14
2022-10-31T01:00:27.728Z,1017.10
2022-10-31T01:01:27.896Z,1017.10
2022-10-31T01:02:27.849Z,1017.03
2022-10-31T01:03:27.698Z,1017.04
2022-10-31T01:04:27.707Z,1016.97
2022-10-31T01:05:27.679Z,1016.99
2022-10-31T01:06:27.700Z,1016.98
2022-10-31T01:07:27.673Z,1016.93
2022-10-31T01:08:28.597Z,1016.92
2022-10-31T01:09:27.640Z,1016.97
2022-10-31T01:10:27.617Z,1016.91
2022-10-31T01:11:27.641Z,1016.99
2022-10-31T01:12:27.611Z,1016.95
2022-10-31T01:13:27.594Z,1016.92
2022-10-31T01:14:27.584Z,1017.00
2022-10-31T01:15:27.580Z,1017.03
2022-10-31T01:16:27.591Z,1017.04
2022-10-31T01:17:27.551Z,1017.09
2022-10-31T01:18:27.531Z,1017.11
2022-10-31T01:19:27.561Z,1017.10
2022-10-31T01:20:27.512Z,1017.11
2022-10-31T01:21:27.506Z,1017.16
2022-10-31T01:22:27.506Z,1017.17
2022-10-31T01:23:28.435Z,1017.19
2022-10-31T01:24:27.468Z,1017.16
2022-10-31T01:25:27.466Z,1017.12
2022-10-31T01:26:27.448Z,1017.16
2022-10-31T01:27:27.454Z,1017.14
2022-10-31T01:28:27.436Z,1017.13
2022-10-31T01:29:27.467Z,1017.14
2022-10-31T01:30:27.396Z,1017.09
2022-10-31T01:31:27.390Z,1017.08
2022-10-31T01:32:27.383Z,1017.06
2022-10-31T01:33:27.359Z,1017.01
2022-10-31T01:34:27.381Z,1017.05
2022-10-31T01:35:27.339Z,1017.05
2022-10-31T01:36:27.331Z,1016.99
2022-10-31T01:37:27.334Z,1016.90
2022-10-31T01:38:27.307Z,1016.89
2022-10-31T01:39:27.303Z,1016.88
2022-10-31T01:40:27.328Z,1016.85
2022-10-31T01:41:27.277Z,1016.85
2022-10-31T01:42:27.258Z,1016.84
2022-10-31T01:43:27.262Z,1016.88
2022-10-31T01:44:27.232Z,1016.91
2022-10-31T01:45:27.220Z,1016.93
2022-10-31T01:46:27.253Z,1016.95
2022-10-31T01:47:27.206Z,1016.94
2022-10-31T01:48:27.190Z,1016.95
2022-10-31T01:49:27.196Z,1016.96
2022-10-31T01:50:27.161Z,1016.90
2022-10-31T01:51:27.156Z,1016.91
2022-10-31T01:52:27.161Z,1016.82
2022-10-31T01:53:27.230Z,1016.82
2022-10-31T01:54:27.134Z,1016.83
2022-10-31T01:55:30.036Z,1016.80
2022-10-31T01:56:27.097Z,1016.77
2022-10-31T01:57:27.096Z,1016.74
2022-10-31T01:58:27.088Z,1016.78
2022-10-31T01:59:27.066Z,1016.77
2022-10-31T02:00:27.071Z,1016.76
2022-10-31T02:01:27.131Z,1016.73
2022-10-31T02:02:27.085Z,1016.72
2022-10-31T02:03:27.015Z,1016.73
2022-10-31T02:04:27.019Z,1016.76
2022-10-31T02:05:27.015Z,1016.72
2022-10-31T02:06:27.938Z,1016.69
2022-10-31T02:07:26.970Z,1016.74
2022-10-31T02:08:26.967Z,1016.72
2022-10-31T02:09:26.981Z,1016.74
2022-10-31T02:10:26.968Z,1016.76
2022-10-31T02:11:26.937Z,1016.77
2022-10-31T02:12:26.915Z,1016.78
2022-10-31T02:13:26.944Z,1016.79
2022-10-31T02:14:26.889Z,1016.79
2022-10-31T02:15:26.890Z,1016.78
2022-10-31T02:16:26.879Z,1016.82
2022-10-31T02:17:26.873Z,1016.76
2022-10-31T02:18:26.849Z,1016.73
2022-10-31T02:19:26.851Z,1016.76
2022-10-31T02:20:26.817Z,1016.83
2022-10-31T02:21:28.299Z,1016.80
2022-10-31T02:22:26.794Z,1016.82
2022-10-31T02:23:26.805Z,1016.84
2022-10-31T02:24:26.776Z,1016.80
2022-10-31T02:25:26.796Z,1016.81
2022-10-31T02:26:26.742Z,1016.81
2022-10-31T02:27:27.054Z,1016.86
2022-10-31T02:28:26.731Z,1016.86
2022-10-31T02:29:26.734Z,1016.86
2022-10-31T02:30:26.705Z,1016.82
2022-10-31T02:31:26.693Z,1016.84
2022-10-31T02:32:26.693Z,1016.76
2022-10-31T02:33:26.705Z,1016.80
2022-10-31T02:34:26.655Z,1016.81
2022-10-31T02:35:26.676Z,1016.78
2022-10-31T02:36:26.645Z,1016.78
2022-10-31T02:37:26.668Z,1016.77
2022-10-31T02:38:26.635Z,1016.81
2022-10-31T02:39:26.624Z,1016.85
2022-10-31T02:40:26.589Z,1016.81
2022-10-31T02:41:26.578Z,1016.81
2022-10-31T02:42:26.627Z,1016.79
2022-10-31T02:43:26.595Z,1016.75
2022-10-31T02:44:26.537Z,1016.76
2022-10-31T02:45:26.541Z,1016.75
2022-10-31T02:46:26.546Z,1016.69
2022-10-31T02:47:26.550Z,1016.70
2022-10-31T02:48:26.541Z,1016.68
2022-10-31T02:49:26.494Z,1016.68
2022-10-31T02:50:26.482Z,1016.73
2022-10-31T02:51:26.480Z,1016.72
2022-10-31T02:52:26.476Z,1016.78
2022-10-31T02:53:26.448Z,1016.84
2022-10-31T02:54:26.468Z,1016.82
2022-10-31T02:55:26.438Z,1016.80
2022-10-31T02:56:26.430Z,1016.84
2022-10-31T02:57:26.409Z,1016.84
2022-10-31T02:58:26.400Z,1016.87
2022-10-31T02:59:26.375Z,1016.89
2022-10-31T03:00:26.389Z,1016.86
2022-10-31T03:01:26.452Z,1016.83
2022-10-31T03:02:26.536Z,1016.80
2022-10-31T03:03:26.353Z,1016.78
2022-10-31T03:04:26.325Z,1016.77
2022-10-31T03:05:26.314Z,1016.75
2022-10-31T03:06:26.300Z,1016.79
2022-10-31T03:07:26.325Z,1016.76
2022-10-31T03:08:26.293Z,1016.79
2022-10-31T03:09:26.277Z,1016.77
2022-10-31T03:10:26.253Z,1016.80
2022-10-31T03:11:26.248Z,1016.79
2022-10-31T03:12:26.237Z,1016.80
2022-10-31T03:13:26.239Z,1016.83
2022-10-31T03:14:26.218Z,1016.79
2022-10-31T03:15:26.206Z,1016.78
2022-10-31T03:16:26.192Z,1016.77
2022-10-31T03:17:26.210Z,1016.79
2022-10-31T03:18:26.173Z,1016.75
2022-10-31T03:19:26.169Z,1016.76
2022-10-31T03:20:26.148Z,1016.74
2022-10-31T03:21:26.143Z,1016.79
2022-10-31T03:22:26.141Z,1016.75
2022-10-31T03:23:26.128Z,1016.74
2022-10-31T03:24:26.100Z,1016.75
2022-10-31T03:25:26.099Z,1016.77
2022-10-31T03:26:26.081Z,1016.77
2022-10-31T03:27:26.106Z,1016.74
2022-10-31T03:28:26.051Z,1016.77
2022-10-31T03:29:26.049Z,1016.77
2022-10-31T03:30:26.036Z,1016.81
2022-10-31T03:31:26.020Z,1016.79
2022-10-31T03:32:26.019Z,1016.79
2022-10-31T03:33:26.041Z,1016.78
2022-10-31T03:34:26.941Z,1016.79
2022-10-31T03:35:25.981Z,1016.81
2022-10-31T03:36:25.984Z,1016.77
2022-10-31T03:37:25.971Z,1016.83
2022-10-31T03:38:25.941Z,1016.77
2022-10-31T03:39:25.957Z,1016.78
2022-10-31T03:40:25.908Z,1016.79
2022-10-31T03:41:26.877Z,1016.81
2022-10-31T03:42:25.902Z,1016.76
2022-10-31T03:43:25.918Z,1016.86
2022-10-31T03:44:25.888Z,1016.81
2022-10-31T03:45:25.853Z,1016.78
2022-10-31T03:46:25.866Z,1016.87
2022-10-31T03:47:25.844Z,1016.87
2022-10-31T03:48:25.858Z,1016.83
2022-10-31T03:49:25.824Z,1016.87
2022-10-31T03:50:25.825Z,1016.81
2022-10-31T03:51:25.814Z,1016.79
2022-10-31T03:52:25.781Z,1016.85
2022-10-31T03:53:25.777Z,1016.92
2022-10-31T03:54:25.756Z,1016.88
2022-10-31T03:55:25.784Z,1016.89
2022-10-31T03:56:25.727Z,1016.87
2022-10-31T03:57:25.731Z,1016.88
2022-10-31T03:58:25.739Z,1016.88
2022-10-31T03:59:25.703Z,1016.86
2022-10-31T04:00:25.719Z,1016.87
2022-10-31T04:01:25.862Z,1016.85
2022-10-31T04:02:25.822Z,1016.84
2022-10-31T04:03:25.667Z,1016.89
2022-10-31T04:04:25.646Z,1016.87
2022-10-31T04:05:25.639Z,1016.79
2022-10-31T04:06:25.641Z,1016.79
2022-10-31T04:07:25.644Z,1016.82
2022-10-31T04:08:25.618Z,1016.79
2022-10-31T04:09:25.593Z,1016.76
2022-10-31T04:10:31.862Z,1016.83
2022-10-31T04:11:26.570Z,1016.77
2022-10-31T04:12:25.562Z,1016.82
2022-10-31T04:13:25.560Z,1016.80
2022-10-31T04:14:25.544Z,1016.71
2022-10-31T04:15:25.558Z,1016.69
2022-10-31T04:16:25.511Z,1016.73
2022-10-31T04:17:25.531Z,1016.67
2022-10-31T04:18:25.513Z,1016.70
2022-10-31T04:19:25.501Z,1016.74
2022-10-31T04:20:25.493Z,1016.66
2022-10-31T04:21:25.512Z,1016.68
2022-10-31T04:22:25.444Z,1016.73
2022-10-31T04:23:25.454Z,1016.65
2022-10-31T04:24:25.461Z,1016.71
2022-10-31T04:25:25.456Z,1016.68
2022-10-31T04:26:25.404Z,1016.64
2022-10-31T04:27:25.459Z,1016.72
2022-10-31T04:28:25.401Z,1016.69
2022-10-31T04:29:25.386Z,1016.66
2022-10-31T04:30:25.374Z,1016.67
2022-10-31T04:31:25.366Z,1016.69
2022-10-31T04:32:25.348Z,1016.68
2022-10-31T04:33:25.365Z,1016.68
2022-10-31T04:34:26.278Z,1016.64
2022-10-31T04:35:25.310Z,1016.69
2022-10-31T04:36:25.329Z,1016.67
2022-10-31T04:37:25.298Z,1016.68
2022-10-31T04:38:25.277Z,1016.69
2022-10-31T04:39:26.772Z,1016.68
2022-10-31T04:40:25.266Z,1016.66
2022-10-31T04:41:25.247Z,1016.66
2022-10-31T04:42:25.241Z,1016.72
2022-10-31T04:43:25.224Z,1016.68
2022-10-31T04:44:25.213Z,1016.69
2022-10-31T04:45:25.240Z,1016.72
2022-10-31T04:46:25.190Z,1016.71
2022-10-31T04:47:25.190Z,1016.73
2022-10-31T04:48:25.192Z,1016.65
2022-10-31T04:49:25.170Z,1016.65
2022-10-31T04:50:25.151Z,1016.71
2022-10-31T04:51:25.161Z,1016.69
2022-10-31T04:52:25.141Z,1016.69
2022-10-31T04:53:25.119Z,1016.74
2022-10-31T04:54:25.111Z,1016.71
2022-10-31T04:55:25.086Z,1016.69
2022-10-31T04:56:25.100Z,1016.73
2022-10-31T04:57:25.092Z,1016.67
2022-10-31T04:58:25.085Z,1016.64
2022-10-31T04:59:25.052Z,1016.60
2022-10-31T05:00:25.046Z,1016.62
2022-10-31T05:01:25.107Z,1016.64
2022-10-31T05:02:25.112Z,1016.64
2022-10-31T05:03:25.035Z,1016.62
2022-10-31T05:04:25.383Z,1016.52
2022-10-31T05:05:25.143Z,1016.55
2022-10-31T05:06:24.974Z,1016.55
2022-10-31T05:07:24.968Z,1016.50
2022-10-31T05:08:24.990Z,1016.48
2022-10-31T05:09:24.965Z,1016.52
2022-10-31T05:10:24.978Z,1016.49
2022-10-31T05:11:24.918Z,1016.52
2022-10-31T05:12:24.914Z,1016.46
2022-10-31T05:13:24.898Z,1016.48
2022-10-31T05:14:24.957Z,1016.51
2022-10-31T05:15:24.878Z,1016.44
2022-10-31T05:16:25.827Z,1016.48
2022-10-31T05:17:24.851Z,1016.49
2022-10-31T05:18:24.837Z,1016.46
2022-10-31T05:19:24.827Z,1016.43
2022-10-31T05:20:24.819Z,1016.42
2022-10-31T05:21:24.821Z,1016.42
2022-10-31T05:22:24.802Z,1016.39
2022-10-31T05:23:24.870Z,1016.28
2022-10-31T05:24:24.775Z,1016.30
2022-10-31T05:25:24.761Z,1016.32
2022-10-31T05:26:24.770Z,1016.26
2022-10-31T05:27:24.739Z,1016.32
2022-10-31T05:28:24.761Z,1016.31
2022-10-31T05:29:24.711Z,1016.36
2022-10-31T05:30:24.711Z,1016.35
2022-10-31T05:31:24.701Z,1016.33
2022-10-31T05:32:24.701Z,1016.32
2022-10-31T05:33:24.664Z,1016.33
2022-10-31T05:34:24.676Z,1016.36
2022-10-31T05:35:24.647Z,1016.37
2022-10-31T05:36:24.644Z,1016.41
2022-10-31T05:37:24.625Z,1016.43
2022-10-31T05:38:24.744Z,1016.41
2022-10-31T05:39:25.582Z,1016.44
2022-10-31T05:40:24.624Z,1016.42
2022-10-31T05:41:24.596Z,1016.40
2022-10-31T05:42:24.659Z,1016.42
2022-10-31T05:43:24.554Z,1016.40
2022-10-31T05:44:24.567Z,1016.41
2022-10-31T05:45:24.607Z,1016.44
2022-10-31T05:46:24.637Z,1016.42
2022-10-31T05:47:24.595Z,1016.44
2022-10-31T05:48:24.504Z,1016.42
2022-10-31T05:49:24.514Z,1016.44
2022-10-31T05:50:24.509Z,1016.39
2022-10-31T05:51:24.463Z,1016.40
2022-10-31T05:52:24.466Z,1016.40
2022-10-31T05:53:24.436Z,1016.38
2022-10-31T05:54:24.479Z,1016.34
2022-10-31T05:55:24.438Z,1016.35
2022-10-31T05:56:24.444Z,1016.30
2022-10-31T05:57:24.395Z,1016.33
2022-10-31T05:58:24.377Z,1016.30
2022-10-31T05:59:24.380Z,1016.30
2022-10-31T06:00:24.383Z,1016.30
2022-10-31T06:01:24.426Z,1016.31
2022-10-31T06:02:24.384Z,1016.33
2022-10-31T06:03:24.319Z,1016.30
2022-10-31T06:04:24.400Z,1016.36
2022-10-31T06:05:24.304Z,1016.32
2022-10-31T06:06:24.296Z,1016.28
2022-10-31T06:07:24.290Z,1016.26
2022-10-31T06:08:24.326Z,1016.27
2022-10-31T06:09:24.294Z,1016.29
2022-10-31T06:10:24.252Z,1016.30
2022-10-31T06:11:24.253Z,1016.28
2022-10-31T06:12:24.238Z,1016.28
2022-10-31T06:13:24.235Z,1016.26
2022-10-31T06:14:24.211Z,1016.23
2022-10-31T06:15:24.909Z,1016.22
2022-10-31T06:16:24.213Z,1016.22
2022-10-31T06:17:24.172Z,1016.23
2022-10-31T06:18:24.202Z,1016.26
2022-10-31T06:19:24.175Z,1016.21
2022-10-31T06:20:24.137Z,1016.24
2022-10-31T06:21:24.125Z,1016.21
2022-10-31T06:22:24.114Z,1016.24
2022-10-31T06:23:24.124Z,1016.28
2022-10-31T06:24:24.132Z,1016.25
2022-10-31T06:25:24.081Z,1016.26
2022-10-31T06:26:24.076Z,1016.29
2022-10-31T06:27:24.056Z,1016.26
2022-10-31T06:28:24.057Z,1016.26
2022-10-31T06:29:24.259Z,1016.31
2022-10-31T06:30:24.226Z,1016.28
2022-10-31T06:31:24.016Z,1016.32
2022-10-31T06:32:24.051Z,1016.26
2022-10-31T06:33:24.240Z,1016.23
2022-10-31T06:34:23.999Z,1016.22
2022-10-31T06:35:24.003Z,1016.29
2022-10-31T06:36:24.023Z,1016.31
2022-10-31T06:37:23.959Z,1016.30
2022-10-31T06:38:23.928Z,1016.33
2022-10-31T06:39:23.934Z,1016.30
2022-10-31T06:40:23.939Z,1016.32
2022-10-31T06:41:23.927Z,1016.29
2022-10-31T06:42:23.909Z,1016.34
2022-10-31T06:43:23.913Z,1016.28
2022-10-31T06:44:23.878Z,1016.36
2022-10-31T06:45:23.851Z,1016.32
2022-10-31T06:46:25.331Z,1016.31
2022-10-31T06:47:23.879Z,1016.35
2022-10-31T06:48:24.184Z,1016.31
2022-10-31T06:49:23.811Z,1016.31
2022-10-31T06:50:23.832Z,1016.30
2022-10-31T06:51:24.052Z,1016.28
2022-10-31T06:52:23.814Z,1016.28
2022-10-31T06:53:23.792Z,1016.31
2022-10-31T06:54:23.759Z,1016.29
2022-10-31T06:55:23.758Z,1016.31
2022-10-31T06:56:23.728Z,1016.38
2022-10-31T06:57:23.752Z,1016.35
2022-10-31T06:58:23.718Z,1016.42
2022-10-31T06:59:23.729Z,1016.43
2022-10-31T07:00:24.691Z,1016.45
2022-10-31T07:01:23.813Z,1016.45
2022-10-31T07:02:23.734Z,1016.45
2022-10-31T07:03:23.656Z,1016.48
2022-10-31T07:04:23.697Z,1016.49
2022-10-31T07:05:23.630Z,1016.48
2022-10-31T07:06:23.630Z,1016.48
2022-10-31T07:07:23.623Z,1016.48
2022-10-31T07:08:23.600Z,1016.43
2022-10-31T07:09:23.602Z,1016.42
2022-10-31T07:10:23.639Z,1016.41
2022-10-31T07:11:23.583Z,1016.42
2022-10-31T07:12:23.557Z,1016.46
2022-10-31T07:13:23.559Z,1016.44
2022-10-31T07:14:23.540Z,1016.44
2022-10-31T07:15:23.529Z,1016.46
2022-10-31T07:16:24.459Z,1016.49
2022-10-31T07:17:28.744Z,1016.49
2022-10-31T07:18:24.519Z,1016.50
2022-10-31T07:19:23.478Z,1016.52
2022-10-31T07:20:23.479Z,1016.48
2022-10-31T07:21:23.437Z,1016.48
2022-10-31T07:22:23.446Z,1016.46
2022-10-31T07:23:24.386Z,1016.48
2022-10-31T07:24:23.481Z,1016.43
2022-10-31T07:25:23.405Z,1016.43
2022-10-31T07:26:23.420Z,1016.43
2022-10-31T07:27:23.369Z,1016.39
2022-10-31T07:28:23.381Z,1016.43
2022-10-31T07:29:23.363Z,1016.48
2022-10-31T07:30:23.503Z,1016.50
2022-10-31T07:31:23.561Z,1016.53
2022-10-31T07:32:23.357Z,1016.53
2022-10-31T07:33:23.314Z,1016.54
2022-10-31T07:34:23.302Z,1016.50
2022-10-31T07:35:23.364Z,1016.48
2022-10-31T07:36:23.281Z,1016.45
2022-10-31T07:37:23.293Z,1016.46
2022-10-31T07:38:23.274Z,1016.45
2022-10-31T07:39:23.233Z,1016.45
2022-10-31T07:40:23.226Z,1016.43
2022-10-31T07:41:23.216Z,1016.41
2022-10-31T07:42:23.224Z,1016.45
2022-10-31T07:43:23.491Z,1016.41
2022-10-31T07:44:23.226Z,1016.40
2022-10-31T07:45:23.173Z,1016.43
2022-10-31T07:46:23.169Z,1016.50
2022-10-31T07:47:23.163Z,1016.48
2022-10-31T07:48:23.147Z,1016.52
2022-10-31T07:49:23.138Z,1016.50
2022-10-31T07:50:23.611Z,1016.52
2022-10-31T07:51:23.149Z,1016.59
2022-10-31T07:52:23.105Z,1016.61
2022-10-31T07:53:23.099Z,1016.57
2022-10-31T07:54:23.082Z,1016.59
2022-10-31T07:55:23.094Z,1016.61
2022-10-31T07:56:23.065Z,1016.55
2022-10-31T07:57:25.170Z,1016.61
2022-10-31T07:58:23.055Z,1016.56
2022-10-31T07:59:23.988Z,1016.60
2022-10-31T08:00:23.003Z,1016.59
2022-10-31T08:01:23.017Z,1016.55
2022-10-31T08:02:23.036Z,1016.53
2022-10-31T08:03:22.972Z,1016.53
2022-10-31T08:04:22.974Z,1016.50
2022-10-31T08:05:22.972Z,1016.55
2022-10-31T08:06:22.951Z,1016.58
2022-10-31T08:07:22.999Z,1016.58
2022-10-31T08:08:22.936Z,1016.57
2022-10-31T08:09:22.905Z,1016.59
2022-10-31T08:10:22.893Z,1016.57
2022-10-31T08:11:22.883Z,1016.56
2022-10-31T08:12:22.895Z,1016.54
2022-10-31T08:13:22.891Z,1016.54
2022-10-31T08:14:22.897Z,1016.61
2022-10-31T08:15:22.845Z,1016.58
2022-10-31T08:16:22.829Z,1016.59
2022-10-31T08:17:24.280Z,1016.59
2022-10-31T08:18:22.829Z,1016.61
2022-10-31T08:19:22.815Z,1016.66
2022-10-31T08:20:22.828Z,1016.59
2022-10-31T08:21:22.776Z,1016.57
2022-10-31T08:22:22.782Z,1016.58
2022-10-31T08:23:22.748Z,1016.50
2022-10-31T08:24:22.748Z,1016.53
2022-10-31T08:25:22.724Z,1016.47
2022-10-31T08:26:22.742Z,1016.48
2022-10-31T08:27:22.722Z,1016.49
2022-10-31T08:28:22.751Z,1016.50
2022-10-31T08:29:22.747Z,1016.45
2022-10-31T08:30:22.679Z,1016.50
2022-10-31T08:31:22.697Z,1016.49
2022-10-31T08:32:22.750Z,1016.55
2022-10-31T08:33:23.601Z,1016.51
2022-10-31T08:34:22.673Z,1016.55
2022-10-31T08:35:22.620Z,1016.56
2022-10-31T08:36:23.589Z,1016.50
2022-10-31T08:37:22.601Z,1016.50
2022-10-31T08:38:22.714Z,1016.46
2022-10-31T08:39:22.614Z,1016.46
2022-10-31T08:40:22.608Z,1016.50
2022-10-31T08:41:22.563Z,1016.42
2022-10-31T08:42:22.553Z,1016.39
2022-10-31T08:43:23.487Z,1016.39
2022-10-31T08:44:22.552Z,1016.41
2022-10-31T08:45:22.504Z,1016.38
2022-10-31T08:46:22.511Z,1016.41
2022-10-31T08:47:22.491Z,1016.39
2022-10-31T08:48:22.482Z,1016.42
2022-10-31T08:49:22.473Z,1016.39
2022-10-31T08:50:22.486Z,1016.35
2022-10-31T08:51:22.433Z,1016.33
2022-10-31T08:52:29.381Z,1016.31
2022-10-31T08:53:23.417Z,1016.38
2022-10-31T08:54:22.405Z,1016.30
2022-10-31T08:55:22.397Z,1016.29
2022-10-31T08:56:22.409Z,1016.32
2022-10-31T08:57:22.379Z,1016.25
2022-10-31T08:58:22.353Z,1016.28
2022-10-31T08:59:22.349Z,1016.27
2022-10-31T09:00:22.338Z,1016.31
2022-10-31T09:01:22.498Z,1016.27
2022-10-31T09:02:22.433Z,1016.24
2022-10-31T09:03:22.301Z,1016.34
2022-10-31T09:04:22.284Z,1016.29
2022-10-31T09:05:22.288Z,1016.32
2022-10-31T09:06:22.339Z,1016.28
2022-10-31T09:07:22.280Z,1016.31
2022-10-31T09:08:22.236Z,1016.25
2022-10-31T09:09:22.222Z,1016.23
2022-10-31T09:10:22.269Z,1016.23
2022-10-31T09:11:22.248Z,1016.18
2022-10-31T09:12:22.224Z,1016.22
2022-10-31T09:13:24.180Z,1016.21
2022-10-31T09:14:22.181Z,1016.14
2022-10-31T09:15:22.162Z,1016.16
2022-10-31T09:16:22.196Z,1016.17
2022-10-31T09:17:22.154Z,1016.15
2022-10-31T09:18:22.158Z,1016.12
2022-10-31T09:19:22.126Z,1016.07
2022-10-31T09:20:22.171Z,1016.05
2022-10-31T09:21:22.123Z,1016.06
2022-10-31T09:22:22.085Z,1016.07
2022-10-31T09:23:22.085Z,1016.02
2022-10-31T09:24:22.123Z,1016.01
2022-10-31T09:25:22.058Z,1016.00
2022-10-31T09:26:22.026Z,1015.99
2022-10-31T09:27:22.080Z,1015.97
2022-10-31T09:28:22.112Z,1015.96
2022-10-31T09:29:22.193Z,1015.96
2022-10-31T09:30:22.084Z,1015.95
2022-10-31T09:31:21.976Z,1015.91
2022-10-31T09:32:21.966Z,1015.94
2022-10-31T09:33:21.988Z,1015.92
2022-10-31T09:34:21.938Z,1015.92
2022-10-31T09:35:24.840Z,1015.90
2022-10-31T09:36:21.940Z,1015.86
2022-10-31T09:37:21.909Z,1015.86
2022-10-31T09:38:21.932Z,1015.85
2022-10-31T09:39:21.890Z,1015.83
2022-10-31T09:40:21.982Z,1015.80
2022-10-31T09:41:21.947Z,1015.80
2022-10-31T09:42:21.850Z,1015.74
2022-10-31T09:43:21.869Z,1015.76
2022-10-31T09:44:21.840Z,1015.71
2022-10-31T09:45:21.842Z,1015.74
2022-10-31T09:46:21.844Z,1015.67
2022-10-31T09:47:21.801Z,1015.66
2022-10-31T09:48:21.797Z,1015.70
2022-10-31T09:49:21.814Z,1015.67
2022-10-31T09:50:21.944Z,1015.71
2022-10-31T09:51:21.764Z,1015.67
2022-10-31T09:52:21.770Z,1015.66
2022-10-31T09:53:21.737Z,1015.60
2022-10-31T09:54:21.715Z,1015.59
2022-10-31T09:55:21.730Z,1015.52
2022-10-31T09:56:21.793Z,1015.46
2022-10-31T09:57:21.708Z,1015.50
2022-10-31T09:58:21.678Z,1015.54
2022-10-31T09:59:21.685Z,1015.52
2022-10-31T10:00:22.610Z,1015.52
2022-10-31T10:01:21.800Z,1015.53
2022-10-31T10:02:21.744Z,1015.50
2022-10-31T10:03:21.624Z,1015.55
2022-10-31T10:04:21.619Z,1015.49
2022-10-31T10:05:21.607Z,1015.44
2022-10-31T10:06:21.577Z,1015.44
2022-10-31T10:07:21.621Z,1015.45
2022-10-31T10:08:21.568Z,1015.45
2022-10-31T10:10:21.592Z,1015.38
2022-10-31T10:11:21.539Z,1015.38
2022-10-31T10:12:21.521Z,1015.35
2022-10-31T10:13:21.527Z,1015.39
2022-10-31T10:14:21.496Z,1015.37
2022-10-31T10:15:21.485Z,1015.38
2022-10-31T10:16:21.489Z,1015.36
2022-10-31T10:17:21.475Z,1015.36
2022-10-31T10:18:21.489Z,1015.40
2022-10-31T10:19:21.466Z,1015.37
2022-10-31T10:20:21.526Z,1015.39
2022-10-31T10:21:21.425Z,1015.37
2022-10-31T10:22:21.410Z,1015.39
2022-10-31T10:23:21.418Z,1015.36
2022-10-31T10:24:21.418Z,1015.37
2022-10-31T10:25:21.374Z,1015.40
2022-10-31T10:26:21.436Z,1015.39
2022-10-31T10:27:23.365Z,1015.34
2022-10-31T10:28:22.296Z,1015.34
2022-10-31T10:29:21.367Z,1015.36
2022-10-31T10:30:21.311Z,1015.33
2022-10-31T10:31:21.317Z,1015.30
2022-10-31T10:32:21.294Z,1015.23
2022-10-31T10:33:21.285Z,1015.23
2022-10-31T10:34:21.278Z,1015.21
2022-10-31T10:35:21.296Z,1015.20
2022-10-31T10:36:21.244Z,1015.17
2022-10-31T10:37:21.235Z,1015.13
2022-10-31T10:38:21.220Z,1015.12
2022-10-31T10:39:21.215Z,1015.11
2022-10-31T10:40:21.219Z,1015.14
2022-10-31T10:41:21.233Z,1015.08
2022-10-31T10:42:21.349Z,1015.09
2022-10-31T10:43:21.175Z,1015.05
2022-10-31T10:44:21.160Z,1015.04
2022-10-31T10:45:21.152Z,1015.03
2022-10-31T10:46:21.140Z,1015.04
2022-10-31T10:47:21.151Z,1014.98
2022-10-31T10:48:21.109Z,1015.03
2022-10-31T10:49:21.148Z,1014.95
2022-10-31T10:50:21.090Z,1014.91
2022-10-31T10:51:31.854Z,1014.85
2022-10-31T10:53:22.053Z,1014.80
2022-10-31T10:54:21.043Z,1014.79
2022-10-31T10:55:21.079Z,1014.76
2022-10-31T10:56:21.019Z,1014.80
2022-10-31T10:57:21.019Z,1014.77
2022-10-31T10:58:21.005Z,1014.70
2022-10-31T10:59:21.002Z,1014.71
2022-10-31T11:00:21.023Z,1014.69
2022-10-31T11:01:20.968Z,1014.62
2022-10-31T11:02:21.005Z,1014.64
2022-10-31T11:03:20.952Z,1014.58
2022-10-31T11:04:21.055Z,1014.53
2022-10-31T11:05:20.923Z,1014.53
2022-10-31T11:06:20.933Z,1014.42
2022-10-31T11:07:20.894Z,1014.41
2022-10-31T11:08:24.811Z,1014.36
2022-10-31T11:09:21.885Z,1014.36
2022-10-31T11:10:20.888Z,1014.33
2022-10-31T11:11:20.866Z,1014.32
2022-10-31T11:12:21.195Z,1014.36
2022-10-31T11:13:20.838Z,1014.36
2022-10-31T11:14:20.820Z,1014.39
2022-10-31T11:15:20.857Z,1014.37
2022-10-31T11:16:20.827Z,1014.35
2022-10-31T11:17:20.880Z,1014.36
2022-10-31T11:18:20.845Z,1014.34
2022-10-31T11:19:20.795Z,1014.39
2022-10-31T11:20:22.711Z,1014.34
2022-10-31T11:21:20.784Z,1014.34
2022-10-31T11:22:20.741Z,1014.37
2022-10-31T11:23:20.736Z,1014.35
2022-10-31T11:24:20.703Z,1014.44
2022-10-31T11:25:20.705Z,1014.37
2022-10-31T11:26:20.686Z,1014.35
2022-10-31T11:27:20.742Z,1014.37
2022-10-31T11:28:20.702Z,1014.35
2022-10-31T11:29:20.655Z,1014.34
2022-10-31T11:30:20.656Z,1014.37
2022-10-31T11:31:20.662Z,1014.35
2022-10-31T11:32:20.643Z,1014.32
2022-10-31T11:33:20.606Z,1014.31
2022-10-31T11:34:20.617Z,1014.28
2022-10-31T11:35:20.605Z,1014.30
2022-10-31T11:36:20.671Z,1014.25
2022-10-31T11:37:20.592Z,1014.20
2022-10-31T11:38:20.555Z,1014.13
2022-10-31T11:39:20.546Z,1014.15
2022-10-31T11:40:20.591Z,1014.07
2022-10-31T11:41:20.524Z,1014.07
2022-10-31T11:42:20.525Z,1014.02
2022-10-31T11:43:20.504Z,1014.03
2022-10-31T11:44:20.508Z,1014.01
2022-10-31T11:45:20.512Z,1013.97
2022-10-31T11:46:20.471Z,1014.01
2022-10-31T11:47:20.474Z,1014.04
2022-10-31T11:48:20.436Z,1014.05
2022-10-31T11:49:20.429Z,1014.09
2022-10-31T11:50:20.423Z,1014.08
2022-10-31T11:51:20.441Z,1014.09
2022-10-31T11:52:20.440Z,1014.07
2022-10-31T11:53:20.375Z,1014.07
2022-10-31T11:54:20.368Z,1013.96
2022-10-31T11:55:20.376Z,1013.98
2022-10-31T11:56:20.341Z,1013.98
2022-10-31T11:57:20.342Z,1014.00
2022-10-31T11:58:21.271Z,1013.97
2022-10-31T11:59:20.333Z,1013.94
2022-10-31T12:00:20.459Z,1013.91
2022-10-31T12:01:20.324Z,1013.90
2022-10-31T12:02:20.347Z,1013.87
2022-10-31T12:03:20.272Z,1013.72
2022-10-31T12:04:20.884Z,1013.73
2022-10-31T12:05:20.246Z,1013.68
2022-10-31T12:06:20.249Z,1013.70
2022-10-31T12:07:20.224Z,1013.67